EDT,Max TemperatureF,Mean TemperatureF,Min TemperatureF,Max Dew PointF,MeanDew PointF,Min DewpointF,Max Humidity, Mean Humidity, Min Humidity, Max Sea Level PressureIn, Mean Sea Level PressureIn, Min Sea Level PressureIn, Max VisibilityMiles, Mean VisibilityMiles, Min VisibilityMiles, Max Wind SpeedMPH, Mean Wind SpeedMPH, Max Gust SpeedMPH,PrecipitationIn, CloudCover, Events, WindDirDegrees
2013-4-1,72,61,50,59,54,45,96,68,40,29.93,29.87,29.83,10,9,1,14,5,17,T,5,Rain,253
2013-4-2,63,52,41,50,35,26,89,58,27,30.15,30.07,29.93,10,9,0,15,7,21,0.00,2,Fog,347
2013-4-3,58,51,43,43,34,24,86,57,28,30.32,30.23,30.14,10,10,10,15,5,21,T,5,,59
2013-4-4,57,50,43,54,42,31,93,72,50,30.35,30.14,29.81,10,8,2,18,10,23,0.43,5,Rain,60
2013-4-5,59,50,41,55,46,40,96,79,62,30.03,29.89,29.74,10,9,4,17,6,23,0.01,6,Rain,329
2013-4-6,63,50,37,41,37,34,100,68,36,30.32,30.13,30.03,10,5,0,17,8,22,0.00,0,Fog,56
2013-4-7,75,56,37,52,44,35,92,65,38,30.31,30.24,30.17,10,10,10,15,5,21,0.00,0,,132
2013-4-8,80,65,49,58,54,46,93,67,40,30.22,30.17,30.12,10,10,10,18,7,25,0.00,2,,204
2013-4-9,86,72,57,63,59,56,93,67,40,30.23,30.17,30.11,10,10,6,17,8,22,0.00,1,,209
2013-4-10,88,75,62,62,59,55,93,66,39,30.15,30.08,30.01,10,10,6,18,9,26,0.00,0,,217
2013-4-11,85,74,62,66,62,59,93,71,49,30.04,29.97,29.90,10,10,10,21,10,29,0.00,2,,210
2013-4-12,84,77,69,70,67,64,90,76,61,29.90,29.80,29.69,10,9,2,21,12,30,0.16,5,Rain,197
2013-4-13,71,60,49,66,53,46,93,72,51,30.05,29.93,29.77,10,10,7,15,6,20,0.00,2,,115
2013-4-14,82,64,45,56,46,35,93,57,21,30.13,30.08,30.04,10,8,2,15,3,20,0.00,0,,137
2013-4-15,72,67,61,61,58,53,93,77,61,30.22,30.13,30.04,10,10,9,18,6,28,0.07,5,Rain,96
2013-4-16,78,69,59,64,61,57,93,74,54,30.30,30.25,30.20,10,8,2,13,4,17,0.01,6,Rain,89
2013-4-17,83,68,53,61,55,51,100,72,43,30.26,30.22,30.16,10,4,0,12,3,15,0.00,3,Fog,156
2013-4-18,80,68,55,63,58,54,93,71,48,30.23,30.18,30.12,10,7,0,15,6,22,0.00,2,Fog,159
2013-4-19,81,74,67,72,67,63,90,77,64,30.09,29.97,29.88,10,9,2,26,13,41,0.70,7,Rain-Thunderstorm,193
2013-4-20,68,57,46,66,55,42,87,69,51,30.28,30.01,29.86,10,8,2,21,6,35,0.34,5,Rain-Thunderstorm,277
2013-4-21,64,54,44,45,41,35,89,66,43,30.50,30.40,30.28,10,9,1,23,12,33,0.00,0,,49
2013-4-22,59,52,45,52,48,41,93,85,77,30.45,30.29,30.21,10,7,2,22,13,30,0.02,7,Rain,15
2013-4-23,66,57,48,52,51,47,96,78,60,30.20,30.17,30.14,10,9,4,18,8,24,0.00,5,,11
2013-4-24,75,60,45,60,50,43,93,73,53,30.21,30.15,30.06,10,7,0,20,8,24,0.00,2,Fog,193
2013-4-25,71,61,51,60,54,45,87,73,58,30.30,30.19,30.07,10,10,10,16,7,20,0.00,5,,77
2013-4-26,72,57,42,46,42,39,83,57,31,30.43,30.37,30.29,10,10,10,15,5,21,0.00,0,,89
2013-4-27,73,61,49,54,46,40,93,62,31,30.40,30.36,30.32,10,10,10,15,5,20,0.00,0,,95
2013-4-28,75,64,52,56,45,35,77,51,25,30.31,30.23,30.14,10,10,10,12,5,17,0.00,4,,119
2013-4-29,72,67,61,63,60,54,93,80,67,30.14,30.06,30.00,10,8,2,18,5,26,0.52,7,Rain,173
2013-4-30,78,69,59,63,61,57,100,80,60,30.14,30.06,30.01,10,5,0,15,5,20,0.00,6,Fog,31